Time;durP1;ratioP1;P1;durP2;ratioP2;P2;SDS_P1;SDS_P2;PMS_P1;PMS_P2;Temp;Humidity;BMP_temperature;BMP_pressure;BME280_temperature;BME280_humidity;BME280_pressure;Samples;Min_cycle;Max_cycle;Signal;HPM_P1;HPM_P2
2022/03/10 00:00:20;;;;;;;14.25;4.15;;;;;;;-1.29;66.69;97273.16;5024176;28;20063;-56
2022/03/10 00:02:47;;;;;;;9.95;3.90;;;;;;;-1.20;65.83;97280.38;5024140;28;20076;-59
2022/03/10 00:05:15;;;;;;;11.65;2.90;;;;;;;-1.40;64.34;97258.06;5022319;28;20107;-59
2022/03/10 00:07:42;;;;;;;13.57;4.15;;;;;;;-1.24;65.26;97275.81;5022549;28;20045;-55
2022/03/10 00:10:09;;;;;;;15.73;3.55;;;;;;;-1.09;65.57;97270.22;5023835;28;20056;-55
2022/03/10 00:12:46;;;;;;;15.52;4.65;;;;;;;-1.03;65.62;97274.50;5023696;28;20056;-56
2022/03/10 00:15:13;;;;;;;13.45;3.67;;;;;;;-1.08;65.35;97277.25;5022450;28;20444;-56
2022/03/10 00:17:40;;;;;;;10.73;4.05;;;;;;;-1.42;65.65;97238.56;5024269;28;20049;-55
2022/03/10 00:20:08;;;;;;;14.43;3.83;;;;;;;-1.18;66.22;97282.81;5022426;28;20494;-56
2022/03/10 00:22:48;;;;;;;11.93;3.42;;;;;;;-1.41;65.98;97261.91;5023786;28;20058;-62
2022/03/10 00:25:16;;;;;;;12.73;4.32;;;;;;;-1.10;66.29;97291.13;5023367;28;20056;-54
2022/03/10 00:27:44;;;;;;;12.38;4.00;;;;;;;-1.65;65.85;97213.81;5023579;28;20099;-60
2022/03/10 00:30:11;;;;;;;15.18;4.63;;;;;;;-1.30;65.70;97258.78;5023618;28;20053;-60
2022/03/10 00:32:43;;;;;;;7.32;3.53;;;;;;;-1.32;66.07;97271.84;5022595;28;20049;-55
2022/03/10 00:35:10;;;;;;;11.07;3.58;;;;;;;-1.33;66.96;97263.97;5023726;28;20055;-54
2022/03/10 00:37:37;;;;;;;26.02;9.48;;;;;;;-1.19;66.30;97275.75;5002224;28;20057;-59
2022/03/10 00:40:05;;;;;;;14.15;4.53;;;;;;;-1.15;66.40;97271.34;5023791;28;20053;-55
2022/03/10 00:42:37;;;;;;;17.38;5.85;;;;;;;-0.92;65.94;97254.22;5038237;28;20052;-60
2022/03/10 00:45:06;;;;;;;9.73;4.10;;;;;;;-0.92;65.71;97270.53;5043634;28;20053;-59
2022/03/10 00:47:33;;;;;;;8.27;4.25;;;;;;;-0.89;65.97;97264.53;5043707;28;20045;-53
2022/03/10 00:50:01;;;;;;;11.43;3.65;;;;;;;-1.16;64.59;97265.13;5043297;28;20055;-59
2022/03/10 00:52:27;;;;;;;5.65;1.95;;;;;;;-2.16;65.97;97169.28;5041799;28;20583;-54
2022/03/10 00:54:54;;;;;;;9.85;3.67;;;;;;;-1.60;66.18;97232.75;5043567;28;20049;-59
2022/03/10 00:57:21;;;;;;;4.53;2.72;;;;;;;-1.56;66.14;97258.25;5044556;28;20052;-54
2022/03/10 00:59:48;;;;;;;9.13;3.53;;;;;;;-1.41;65.89;97251.03;5047317;28;20683;-54
2022/03/10 01:02:15;;;;;;;9.68;4.82;;;;;;;-1.61;66.53;97236.56;5045752;28;20050;-54
2022/03/10 01:04:43;;;;;;;11.43;3.83;;;;;;;-1.66;68.14;97255.63;5046892;28;20076;-59
2022/03/10 01:07:11;;;;;;;5.93;1.85;;;;;;;-1.94;66.74;97237.47;5047339;28;20543;-55
2022/03/10 01:09:38;;;;;;;9.52;3.17;;;;;;;-1.82;67.04;97246.00;5047298;28;20061;-59
2022/03/10 01:12:05;;;;;;;8.90;3.60;;;;;;;-1.91;67.39;97260.50;5045269;28;20053;-59
2022/03/10 01:14:32;;;;;;;11.15;4.00;;;;;;;-1.98;67.99;97220.16;5046967;28;20143;-54
2022/03/10 01:16:59;;;;;;;17.25;4.07;;;;;;;-2.04;68.63;97253.81;5047324;28;20431;-59
2022/03/10 01:19:26;;;;;;;11.98;4.05;;;;;;;-1.99;69.65;97261.13;5046852;28;20068;-59
2022/03/10 01:21:53;;;;;;;8.27;3.20;;;;;;;-2.06;68.62;97250.59;5046932;28;20048;-59
2022/03/10 01:24:20;;;;;;;8.52;3.50;;;;;;;-2.01;69.05;97258.69;5046844;28;20053;-59
2022/03/10 01:26:46;;;;;;;4.63;1.85;;;;;;;-2.19;69.20;97248.53;5046929;28;20409;-59
2022/03/10 01:29:13;;;;;;;11.35;3.70;;;;;;;-2.12;69.63;97253.66;5046806;28;20067;-58
2022/03/10 01:31:40;;;;;;;14.07;4.03;;;;;;;-2.30;70.48;97255.16;5046721;28;20045;-54
2022/03/10 01:34:07;;;;;;;5.75;2.70;;;;;;;-2.33;70.66;97260.31;5046802;28;20057;-60
2022/03/10 01:36:34;;;;;;;7.32;3.00;;;;;;;-2.38;70.88;97253.03;5047052;28;20151;-55
2022/03/10 01:39:04;;;;;;;8.50;3.60;;;;;;;-2.36;71.09;97256.28;5046496;28;20428;-59
2022/03/10 01:41:35;;;;;;;10.63;4.10;;;;;;;-3.13;70.08;97131.63;5046651;28;20049;-56
2022/03/10 01:44:09;;;;;;;8.43;3.38;;;;;;;-2.17;70.26;97265.34;5045339;28;20322;-61
2022/03/10 01:46:37;;;;;;;6.13;2.85;;;;;;;-2.24;69.35;97259.44;5046815;28;20059;-54
2022/03/10 01:49:05;;;;;;;7.55;3.33;;;;;;;-2.06;69.00;97261.47;5046125;28;20057;-59
2022/03/10 01:51:33;;;;;;;7.32;2.78;;;;;;;-1.99;68.33;97267.34;5046319;28;20052;-60
2022/03/10 01:54:00;;;;;;;7.32;3.33;;;;;;;-2.34;67.52;97199.03;5046407;28;20057;-56
2022/03/10 01:56:27;;;;;;;6.53;3.35;;;;;;;-1.94;67.73;97264.59;5046372;28;20059;-61
2022/03/10 01:58:54;;;;;;;7.70;3.65;;;;;;;-2.06;66.95;97256.03;5046049;28;20072;-62
2022/03/10 02:01:21;;;;;;;9.00;2.97;;;;;;;-2.69;67.49;97205.56;5046425;28;20512;-61
2022/03/10 02:03:48;;;;;;;8.85;3.25;;;;;;;-2.12;67.67;97273.44;5046290;28;20045;-54
2022/03/10 02:06:15;;;;;;;7.57;3.10;;;;;;;-2.03;67.27;97266.31;5046004;28;20060;-60
2022/03/10 02:11:28;;;;;;;5.40;2.35;;;;;;;-1.92;66.86;97229.84;5045941;28;20052;-59
2022/03/10 02:13:55;;;;;;;6.82;3.30;;;;;;;-1.61;66.29;97263.72;5045953;28;20053;-54
2022/03/10 02:19:08;;;;;;;6.50;2.88;;;;;;;-1.60;66.86;97259.91;5045910;28;20073;-59
2022/03/10 02:21:35;;;;;;;8.50;2.90;;;;;;;-1.61;67.59;97263.72;5046141;28;20057;-54
2022/03/10 02:24:02;;;;;;;8.13;3.45;;;;;;;-2.06;67.25;97188.19;5045672;28;20057;-55
2022/03/10 02:26:29;;;;;;;8.18;3.90;;;;;;;-1.52;68.44;97264.72;5046082;28;20060;-54
2022/03/10 02:28:56;;;;;;;9.45;3.95;;;;;;;-1.38;67.47;97272.19;5045841;28;20061;-59
2022/03/10 02:31:22;;;;;;;10.75;3.90;;;;;;;-1.39;67.77;97262.44;5045263;28;20060;-59
2022/03/10 02:33:49;;;;;;;15.63;5.10;;;;;;;-1.75;66.02;97219.34;5044252;28;20056;-61
2022/03/10 02:36:17;;;;;;;9.82;3.90;;;;;;;-1.62;65.07;97272.16;5045618;28;20123;-56
2022/03/10 02:38:44;;;;;;;9.85;3.90;;;;;;;-1.67;66.07;97254.03;5045198;28;20056;-61
2022/03/10 02:41:11;;;;;;;10.63;3.53;;;;;;;-2.18;64.88;97187.75;5045433;28;20059;-60
2022/03/10 02:43:38;;;;;;;13.50;4.22;;;;;;;-1.98;64.98;97266.28;5045616;28;20057;-62
2022/03/10 02:46:05;;;;;;;7.78;2.90;;;;;;;-1.94;64.70;97275.47;5045748;28;20132;-55
2022/03/10 02:48:31;;;;;;;11.07;3.22;;;;;;;-1.92;65.32;97267.03;5045383;28;20056;-61
2022/03/10 02:50:58;;;;;;;9.05;2.88;;;;;;;-2.35;65.51;97284.19;5045317;28;20063;-59
2022/03/10 02:53:25;;;;;;;11.10;4.13;;;;;;;-2.47;65.35;97279.16;5043399;28;20136;-54
2022/03/10 02:55:51;;;;;;;9.13;3.53;;;;;;;-2.47;66.06;97286.47;5045723;28;20550;-54
2022/03/10 02:58:18;;;;;;;10.18;2.47;;;;;;;-2.61;65.87;97275.44;5044900;28;20061;-55
2022/03/10 03:00:45;;;;;;;6.47;3.17;;;;;;;-2.73;65.78;97283.09;5044743;28;20053;-54
2022/03/10 03:03:12;;;;;;;9.27;2.72;;;;;;;-2.75;66.70;97274.41;5044991;28;20068;-54
2022/03/10 03:05:40;;;;;;;7.53;3.13;;;;;;;-2.67;67.30;97276.53;5045215;28;20049;-55
2022/03/10 03:08:08;;;;;;;8.40;3.15;;;;;;;-3.58;66.31;97153.53;5045532;28;20049;-54
2022/03/10 03:10:36;;;;;;;9.52;3.60;;;;;;;-2.73;67.41;97277.66;5043378;28;20443;-59
2022/03/10 03:13:07;;;;;;;4.55;2.58;;;;;;;-2.94;67.33;97276.16;5044910;28;20060;-58
2022/03/10 03:15:33;;;;;;;7.15;3.38;;;;;;;-2.82;68.03;97290.19;5045076;28;20049;-59
2022/03/10 03:18:01;;;;;;;6.03;2.72;;;;;;;-2.84;67.50;97249.00;5044986;28;20049;-54
2022/03/10 03:20:28;;;;;;;5.35;2.42;;;;;;;-2.66;66.75;97275.47;5044203;28;20053;-54
2022/03/10 03:22:55;;;;;;;6.00;3.08;;;;;;;-2.81;67.18;97269.34;5044795;28;20075;-59
2022/03/10 03:25:21;;;;;;;5.88;2.83;;;;;;;-2.79;67.55;97272.56;5045083;28;20515;-55
2022/03/10 03:27:48;;;;;;;7.85;3.22;;;;;;;-2.99;67.40;97284.31;5044950;28;20416;-60
2022/03/10 03:30:16;;;;;;;13.65;4.45;;;;;;;-3.10;67.80;97255.66;5044647;28;20052;-60
2022/03/10 03:32:43;;;;;;;10.43;3.17;;;;;;;-2.89;67.32;97278.03;5044311;28;20061;-54
2022/03/10 03:35:10;;;;;;;7.78;2.67;;;;;;;-3.03;67.09;97272.41;5044386;28;20044;-59
2022/03/10 03:37:37;;;;;;;10.43;3.15;;;;;;;-3.17;67.46;97234.28;5043102;28;20170;-54
2022/03/10 03:40:06;;;;;;;14.77;3.53;;;;;;;-2.84;68.03;97295.06;5042657;28;20111;-59
2022/03/10 03:42:34;;;;;;;16.17;4.85;;;;;;;-2.74;67.81;97270.63;5044213;28;20567;-59
2022/03/10 03:45:01;;;;;;;7.15;2.25;;;;;;;-3.51;66.88;97173.78;5044529;28;20056;-59
2022/03/10 03:47:28;;;;;;;7.28;3.03;;;;;;;-2.98;67.88;97291.34;5042758;28;20051;-59
2022/03/10 03:49:55;;;;;;;9.23;3.00;;;;;;;-3.43;68.05;97186.75;5042833;28;20427;-55
2022/03/10 03:52:22;;;;;;;16.73;4.68;;;;;;;-3.40;68.68;97212.47;5043999;28;20057;-56
2022/03/10 03:54:48;;;;;;;13.18;3.40;;;;;;;-3.58;68.11;97146.22;5044329;28;20075;-59
2022/03/10 03:57:15;;;;;;;6.25;2.58;;;;;;;-2.77;68.13;97298.31;5043605;28;20061;-55
2022/03/10 03:59:42;;;;;;;6.00;2.80;;;;;;;-2.79;67.81;97284.22;5043716;28;20061;-54
2022/03/10 04:02:12;;;;;;;6.65;3.20;;;;;;;-2.67;67.35;97263.00;5043959;28;20057;-59
2022/03/10 04:04:38;;;;;;;6.45;2.72;;;;;;;-2.46;66.33;97278.03;5043866;28;20135;-54
2022/03/10 04:07:06;;;;;;;8.20;3.05;;;;;;;-2.82;66.11;97246.84;5042726;28;20053;-57
2022/03/10 04:09:33;;;;;;;5.57;2.63;;;;;;;-2.56;65.77;97283.53;5043153;28;20424;-55
2022/03/10 04:12:01;;;;;;;11.27;2.95;;;;;;;-2.43;66.82;97266.63;5042511;28;20049;-59
2022/03/10 04:14:28;;;;;;;11.32;3.42;;;;;;;-2.63;66.25;97277.63;5042404;28;20064;-59
2022/03/10 04:16:55;;;;;;;21.92;6.53;;;;;;;-2.52;66.57;97279.16;5034145;28;20053;-59
2022/03/10 04:19:22;;;;;;;19.63;5.50;;;;;;;-2.46;65.43;97271.81;5043592;28;20057;-56
2022/03/10 04:21:48;;;;;;;14.05;3.08;;;;;;;-2.51;65.13;97259.09;5043413;28;20061;-59
2022/03/10 04:24:18;;;;;;;15.20;3.92;;;;;;;-2.58;65.68;97280.31;5043679;28;20045;-55
2022/03/10 04:26:45;;;;;;;15.07;3.67;;;;;;;-2.55;66.79;97281.63;5043613;28;20084;-54
2022/03/10 04:29:12;;;;;;;13.98;6.22;;;;;;;-2.43;66.73;97279.38;5043413;28;20056;-54
2022/03/10 04:31:38;;;;;;;8.48;3.55;;;;;;;-3.12;66.81;97163.03;5043683;28;20578;-60
2022/03/10 04:34:05;;;;;;;13.57;5.93;;;;;;;-2.27;66.61;97281.69;5043695;28;20060;-59
2022/03/10 04:36:32;;;;;;;27.15;8.50;;;;;;;-2.62;66.63;97219.59;5043141;28;20068;-55
2022/03/10 04:38:59;;;;;;;20.38;8.15;;;;;;;-2.13;66.07;97282.66;5042939;28;20049;-54
2022/03/10 04:41:25;;;;;;;18.20;4.00;;;;;;;-2.44;66.08;97292.13;5039215;28;20064;-60
2022/03/10 04:43:52;;;;;;;15.88;4.30;;;;;;;-2.25;65.97;97301.22;5023572;28;20061;-59
2022/03/10 04:46:19;;;;;;;11.05;4.20;;;;;;;-2.22;65.39;97294.41;5023496;28;20053;-60
2022/03/10 04:48:46;;;;;;;13.38;5.07;;;;;;;-3.05;66.09;97171.63;5054953;28;20076;-54
2022/03/10 04:51:13;;;;;;;17.55;6.38;;;;;;;-2.85;66.05;97193.19;5055198;28;20456;-59
2022/03/10 04:53:40;;;;;;;23.92;8.82;;;;;;;-2.12;66.82;97311.41;5023653;28;20045;-55
2022/03/10 04:56:08;;;;;;;29.92;10.43;;;;;;;-2.44;65.92;97248.75;5023378;28;20045;-54
2022/03/10 04:58:34;;;;;;;31.77;8.35;;;;;;;-2.33;66.04;97331.66;5054775;28;20059;-58
2022/03/10 05:01:01;;;;;;;31.60;10.95;;;;;;;-2.29;67.55;97312.94;5023300;28;20145;-54
2022/03/10 05:03:31;;;;;;;32.58;10.90;;;;;;;-2.16;66.94;97310.38;5023293;28;20114;-54
2022/03/10 05:05:59;;;;;;;26.05;8.85;;;;;;;-2.17;66.77;97292.47;5023303;28;20073;-56
2022/03/10 05:08:26;;;;;;;16.48;6.13;;;;;;;-2.10;65.85;97324.69;5023117;28;20069;-59
2022/03/10 05:10:53;;;;;;;20.83;6.75;;;;;;;-1.99;66.01;97329.78;5023139;28;20508;-54
2022/03/10 05:13:19;;;;;;;15.15;5.53;;;;;;;-1.92;64.56;97335.69;5023388;28;20057;-60
2022/03/10 05:15:46;;;;;;;10.85;5.05;;;;;;;-1.92;63.60;97332.16;5023568;28;20049;-55
2022/03/10 05:18:13;;;;;;;9.65;3.80;;;;;;;-2.51;63.55;97272.66;5023129;28;20053;-54
2022/03/10 05:20:40;;;;;;;13.50;4.07;;;;;;;-1.85;63.79;97348.94;5023175;28;20428;-57
2022/03/10 05:23:07;;;;;;;11.80;4.15;;;;;;;-2.72;64.00;97254.91;5023075;28;20056;-54
2022/03/10 05:25:40;;;;;;;12.50;4.35;;;;;;;-1.96;64.91;97350.91;5023236;28;20479;-59
2022/03/10 05:28:14;;;;;;;8.05;2.50;;;;;;;-2.58;63.65;97302.00;5023126;28;20060;-59
2022/03/10 05:30:42;;;;;;;9.20;4.13;;;;;;;-2.75;65.31;97306.16;5023151;28;20057;-55
2022/03/10 05:33:10;;;;;;;9.77;3.05;;;;;;;-2.30;65.04;97366.34;5021739;28;20060;-54
2022/03/10 05:35:39;;;;;;;19.40;4.38;;;;;;;-2.12;64.88;97376.53;5054205;28;20530;-56
2022/03/10 05:38:06;;;;;;;11.73;4.55;;;;;;;-2.27;65.47;97368.50;5023178;28;20049;-59
2022/03/10 05:40:32;;;;;;;11.65;3.55;;;;;;;-2.37;64.95;97346.84;5022950;28;20065;-54
2022/03/10 05:42:59;;;;;;;15.30;5.25;;;;;;;-2.16;64.72;97364.63;5040389;28;20056;-59
2022/03/10 05:45:26;;;;;;;11.23;3.85;;;;;;;-1.74;63.70;97373.00;5046385;28;20139;-55
2022/03/10 05:47:55;;;;;;;17.70;4.43;;;;;;;-2.10;63.07;97298.38;5046256;28;20507;-53
2022/03/10 05:50:23;;;;;;;4.72;2.63;;;;;;;-2.02;63.32;97343.91;5046329;28;20084;-54
2022/03/10 05:52:50;;;;;;;8.10;3.13;;;;;;;-1.87;60.88;97376.38;5045087;28;20397;-54
2022/03/10 05:55:17;;;;;;;8.95;3.72;;;;;;;-1.53;61.79;97386.44;5046453;28;20059;-59
2022/03/10 05:57:45;;;;;;;6.65;2.65;;;;;;;-1.90;60.82;97335.41;5046738;28;20064;-59
2022/03/10 06:00:14;;;;;;;6.00;3.33;;;;;;;-1.35;60.44;97440.03;5045745;28;20060;-54
2022/03/10 06:02:41;;;;;;;6.47;2.80;;;;;;;-1.66;59.24;97342.50;5045044;28;20044;-53
2022/03/10 06:05:09;;;;;;;5.30;2.30;;;;;;;-1.91;58.74;97355.47;5042851;28;20064;-54
2022/03/10 06:07:36;;;;;;;10.00;4.00;;;;;;;-1.99;59.60;97337.91;5044620;28;20060;-64
2022/03/10 06:10:03;;;;;;;8.65;3.20;;;;;;;-1.43;59.54;97408.03;5044675;28;20061;-61
2022/03/10 06:12:30;;;;;;;12.82;4.30;;;;;;;-1.32;59.73;97418.53;5044091;28;20102;-54
2022/03/10 06:14:59;;;;;;;5.50;1.80;;;;;;;-1.72;58.06;97384.38;5043795;28;20052;-57
2022/03/10 06:17:27;;;;;;;6.10;2.75;;;;;;;-1.27;58.41;97414.97;5044916;28;20053;-60
2022/03/10 06:19:54;;;;;;;7.68;3.08;;;;;;;-1.11;57.83;97413.72;5040262;28;20479;-54
2022/03/10 06:22:24;;;;;;;6.55;2.97;;;;;;;-0.94;57.44;97414.09;5045649;28;20044;-55
2022/03/10 06:24:52;;;;;;;8.55;3.53;;;;;;;-0.88;58.14;97397.44;5044476;28;20052;-54
2022/03/10 06:27:22;;;;;;;8.00;3.22;;;;;;;-1.18;56.75;97342.59;5044223;28;20049;-58
2022/03/10 06:29:50;;;;;;;4.68;1.83;;;;;;;-0.81;56.70;97407.97;5045256;28;20045;-60
2022/03/10 06:32:18;;;;;;;8.02;2.33;;;;;;;-3.95;57.02;96913.22;5042240;28;20571;-58
2022/03/10 06:34:50;;;;;;;5.93;2.63;;;;;;;-1.10;56.28;97361.81;5025253;28;20056;-54
2022/03/10 06:37:18;;;;;;;3.97;1.75;;;;;;;-1.40;57.20;97442.78;5024148;28;20049;-54
2022/03/10 06:39:44;;;;;;;3.20;1.35;;;;;;;-1.48;57.87;97419.75;5025190;28;20063;-58
2022/03/10 06:42:14;;;;;;;14.18;6.15;;;;;;;-1.45;57.36;97334.19;5032291;28;20139;-58
2022/03/10 06:44:40;;;;;;;9.50;3.38;;;;;;;-0.47;55.17;97419.53;5044228;28;20060;-55
2022/03/10 06:47:12;;;;;;;7.28;3.35;;;;;;;-0.62;55.16;97427.88;5042672;28;20083;-60
2022/03/10 06:49:39;;;;;;;13.82;4.72;;;;;;;0.33;54.08;97413.00;5043778;28;20049;-54
2022/03/10 06:52:08;;;;;;;18.38;6.40;;;;;;;0.54;53.52;97397.94;5043907;28;20060;-59
2022/03/10 06:54:36;;;;;;;2.17;1.35;;;;;;;0.09;53.02;97355.06;5042196;28;20045;-63
2022/03/10 06:57:03;;;;;;;10.18;3.67;;;;;;;-0.15;54.50;97389.72;5043448;28;20536;-55
2022/03/10 06:59:30;;;;;;;9.65;3.17;;;;;;;0.52;52.97;97421.94;5043831;28;20053;-55
2022/03/10 07:01:56;;;;;;;4.90;2.55;;;;;;;0.18;52.34;97415.13;5043711;28;20087;-57
2022/03/10 07:04:23;;;;;;;6.70;2.75;;;;;;;0.25;51.84;97410.94;5043810;28;20045;-61
2022/03/10 07:06:50;;;;;;;9.55;3.28;;;;;;;0.48;51.78;97412.75;5042115;28;20535;-54
2022/03/10 07:09:19;;;;;;;6.75;2.38;;;;;;;0.76;50.84;97417.19;5039811;28;20154;-63
2022/03/10 07:11:46;;;;;;;9.20;3.38;;;;;;;0.63;51.12;97401.59;5043456;28;20140;-53
2022/03/10 07:14:13;;;;;;;6.68;2.85;;;;;;;0.93;50.85;97433.00;5044159;28;20057;-62
2022/03/10 07:16:40;;;;;;;6.07;2.60;;;;;;;1.02;49.47;97421.09;5042812;28;20056;-61
2022/03/10 07:19:09;;;;;;;8.55;3.50;;;;;;;1.02;49.69;97423.81;5044383;28;20049;-55
2022/03/10 07:21:40;;;;;;;9.85;3.38;;;;;;;1.02;50.57;97437.47;5041968;28;20065;-53
2022/03/10 07:24:07;;;;;;;8.38;3.40;;;;;;;0.76;49.24;97417.19;5040895;28;20049;-54
2022/03/10 07:26:34;;;;;;;6.78;2.85;;;;;;;0.62;49.85;97405.44;5042158;28;20060;-54
2022/03/10 07:29:02;;;;;;;4.55;2.53;;;;;;;0.22;49.37;97346.16;5042081;28;20049;-61
2022/03/10 07:31:30;;;;;;;6.07;2.90;;;;;;;0.43;51.25;97421.00;5042393;28;20059;-55
2022/03/10 07:33:57;;;;;;;7.50;2.70;;;;;;;0.59;48.79;97394.31;5042415;28;20106;-61
2022/03/10 07:36:24;;;;;;;3.40;1.83;;;;;;;0.72;49.23;97405.25;5042042;28;20052;-53
2022/03/10 07:38:51;;;;;;;5.75;2.08;;;;;;;0.48;49.00;97410.03;5042126;28;20523;-55
2022/03/10 07:41:17;;;;;;;4.63;2.22;;;;;;;0.72;49.82;97410.72;5044038;28;20063;-53
2022/03/10 07:43:44;;;;;;;5.88;2.22;;;;;;;0.74;48.95;97408.50;5043866;28;20067;-55
2022/03/10 07:46:11;;;;;;;4.15;2.00;;;;;;;0.53;47.93;97412.66;5043539;28;20056;-57
2022/03/10 07:48:38;;;;;;;7.90;1.90;;;;;;;0.60;47.88;97413.09;5043647;28;20052;-62
2022/03/10 07:51:04;;;;;;;5.10;2.15;;;;;;;0.55;49.17;97415.09;5042216;28;20045;-62
2022/03/10 07:53:32;;;;;;;6.90;3.00;;;;;;;0.83;49.19;97405.88;5044145;28;20526;-62
2022/03/10 07:55:59;;;;;;;5.10;1.92;;;;;;;0.79;48.58;97402.94;5043994;28;20522;-56
2022/03/10 07:58:26;;;;;;;4.85;2.28;;;;;;;0.83;49.99;97412.16;5043453;28;20458;-62
2022/03/10 08:00:57;;;;;;;5.55;2.80;;;;;;;1.02;48.66;97404.72;5042094;28;20075;-62
2022/03/10 08:03:25;;;;;;;9.35;3.53;;;;;;;0.75;49.42;97371.94;5043922;28;20098;-58
2022/03/10 08:05:53;;;;;;;5.32;2.25;;;;;;;1.34;46.64;97407.38;5043640;28;20135;-62
2022/03/10 08:08:20;;;;;;;6.68;2.80;;;;;;;0.46;46.22;97291.56;5044018;28;20049;-62
2022/03/10 08:10:47;;;;;;;7.30;3.15;;;;;;;0.94;48.37;97408.16;5041976;28;20052;-57
2022/03/10 08:13:14;;;;;;;8.90;3.05;;;;;;;1.63;47.05;97403.56;5044211;28;20246;-57
2022/03/10 08:15:42;;;;;;;7.32;2.92;;;;;;;1.22;47.77;97359.88;5043707;28;20497;-57
2022/03/10 08:18:10;;;;;;;5.32;1.90;;;;;;;1.09;46.31;97279.66;5043389;28;20061;-62
2022/03/10 08:20:39;;;;;;;8.43;3.08;;;;;;;1.92;45.65;97402.09;5042980;28;20061;-55
2022/03/10 08:23:06;;;;;;;5.25;2.42;;;;;;;1.61;45.55;97367.56;5043551;28;20076;-63
2022/03/10 08:25:34;;;;;;;8.70;4.57;;;;;;;2.06;46.71;97397.41;5042958;28;20617;-61
2022/03/10 08:28:01;;;;;;;3.55;1.33;;;;;;;1.35;46.13;97400.81;5043239;28;20049;-55
2022/03/10 08:30:28;;;;;;;6.95;3.70;;;;;;;1.91;46.93;97395.03;5042960;28;20472;-61
2022/03/10 08:32:54;;;;;;;7.38;3.45;;;;;;;2.18;44.74;97400.41;5043330;28;20512;-57
2022/03/10 08:35:21;;;;;;;7.10;3.20;;;;;;;1.81;45.80;97454.50;5043372;28;20060;-55
2022/03/10 08:37:48;;;;;;;5.82;3.10;;;;;;;1.58;46.58;97408.00;5041795;28;20060;-57
2022/03/10 08:40:17;;;;;;;9.20;3.45;;;;;;;1.49;47.72;97404.38;5041507;28;20060;-58
2022/03/10 08:42:45;;;;;;;8.57;4.13;;;;;;;1.01;48.99;97415.94;5042961;28;20531;-62
2022/03/10 08:45:12;;;;;;;7.78;3.40;;;;;;;1.24;49.43;97406.78;5041276;28;20135;-55
2022/03/10 08:47:39;;;;;;;6.00;2.83;;;;;;;0.84;50.24;97427.41;5043056;28;20444;-61
2022/03/10 08:50:07;;;;;;;5.75;2.88;;;;;;;0.89;50.30;97405.50;5041410;28;20049;-56
2022/03/10 08:52:33;;;;;;;10.90;3.70;;;;;;;1.02;51.19;97404.72;5041695;28;20049;-63
2022/03/10 08:55:00;;;;;;;6.38;2.72;;;;;;;0.82;49.59;97404.28;5043123;28;20049;-55
2022/03/10 08:57:27;;;;;;;6.05;3.20;;;;;;;0.93;50.59;97413.91;5043143;28;20061;-55
2022/03/10 08:59:53;;;;;;;7.15;3.63;;;;;;;1.01;50.36;97405.81;5042565;28;20622;-55
2022/03/10 09:02:21;;;;;;;8.80;2.95;;;;;;;0.90;50.86;97385.31;5043013;28;20110;-62
2022/03/10 09:04:48;;;;;;;7.30;2.78;;;;;;;0.53;50.28;97415.41;5042891;28;20080;-58
2022/03/10 09:07:16;;;;;;;8.00;3.58;;;;;;;0.53;50.65;97369.06;5042990;28;20064;-62
2022/03/10 09:09:42;;;;;;;5.28;1.98;;;;;;;0.56;47.07;97390.28;5042847;28;20059;-62
2022/03/10 09:12:09;;;;;;;3.80;2.28;;;;;;;0.64;48.77;97419.56;5042916;28;20057;-57
2022/03/10 09:14:36;;;;;;;9.50;3.38;;;;;;;0.43;49.51;97436.56;5042565;28;20060;-54
2022/03/10 09:17:03;;;;;;;5.38;2.65;;;;;;;0.16;49.65;97401.78;5043188;28;20060;-62
2022/03/10 09:19:30;;;;;;;4.82;2.70;;;;;;;0.71;49.95;97430.09;5045665;28;20492;-57
2022/03/10 09:21:58;;;;;;;6.22;4.05;;;;;;;1.01;49.57;97435.81;5046485;28;20523;-61
2022/03/10 09:24:30;;;;;;;5.25;2.25;;;;;;;0.35;50.08;97386.25;5046582;28;20190;-62
2022/03/10 09:26:57;;;;;;;7.00;2.60;;;;;;;0.95;50.06;97430.78;5023642;28;20051;-61
2022/03/10 09:29:24;;;;;;;6.43;2.97;;;;;;;0.62;50.62;97427.22;5046230;28;20068;-58
2022/03/10 09:31:52;;;;;;;6.10;2.90;;;;;;;0.62;50.62;97440.84;5046037;28;20507;-62
2022/03/10 09:34:19;;;;;;;5.20;2.80;;;;;;;1.05;50.42;97442.31;5044855;28;20053;-55
2022/03/10 09:36:46;;;;;;;5.72;2.60;;;;;;;1.24;48.44;97451.25;5046424;28;20048;-57
2022/03/10 09:39:13;;;;;;;5.63;2.28;;;;;;;1.16;48.47;97449.22;5046830;28;20059;-57
2022/03/10 09:41:41;;;;;;;4.00;2.42;;;;;;;1.32;48.24;97458.75;5045325;28;20507;-55
2022/03/10 09:44:13;;;;;;;6.50;2.65;;;;;;;1.27;48.45;97449.81;5045221;28;20048;-58
2022/03/10 09:46:41;;;;;;;2.85;1.40;;;;;;;0.92;48.00;97453.16;5043827;28;20048;-58
2022/03/10 09:49:09;;;;;;;4.93;2.42;;;;;;;1.36;48.28;97454.28;5045146;28;20051;-62
2022/03/10 09:51:36;;;;;;;5.82;2.42;;;;;;;1.21;48.06;97457.31;5045114;28;20049;-56
2022/03/10 09:54:03;;;;;;;6.20;2.50;;;;;;;0.18;50.47;97358.75;5045240;28;20526;-56
2022/03/10 09:56:30;;;;;;;6.53;3.08;;;;;;;0.50;50.65;97409.72;5045579;28;20068;-57
2022/03/10 09:58:57;;;;;;;7.20;1.88;;;;;;;1.48;47.80;97460.06;5044979;28;20082;-58
2022/03/10 10:01:24;;;;;;;4.85;2.58;;;;;;;0.41;49.10;97338.72;5045482;28;20427;-58
2022/03/10 10:03:51;;;;;;;3.70;2.25;;;;;;;0.71;49.14;97430.88;5045737;28;20052;-57
2022/03/10 10:06:17;;;;;;;5.22;1.92;;;;;;;0.47;48.59;97389.34;5045118;28;20056;-67
2022/03/10 10:08:54;;;;;;;6.38;2.35;;;;;;;0.31;49.42;97341.66;5045702;28;20652;-58
2022/03/10 10:11:34;;;;;;;7.38;3.85;;;;;;;1.37;48.81;97450.47;5045657;28;20059;-58
2022/03/10 10:14:01;;;;;;;5.30;2.65;;;;;;;0.69;48.68;97454.94;5045086;28;20063;-57
2022/03/10 10:16:27;;;;;;;5.95;2.58;;;;;;;0.79;48.45;97427.47;5044746;28;20056;-59
2022/03/10 10:18:58;;;;;;;3.60;1.75;;;;;;;0.41;48.83;97346.91;5045280;28;20053;-61
2022/03/10 10:21:27;;;;;;;11.40;3.80;;;;;;;0.29;50.74;97346.56;5044731;28;20067;-61
2022/03/10 10:23:54;;;;;;;7.57;2.90;;;;;;;0.99;48.70;97461.78;5043046;28;20701;-66
2022/03/10 10:26:26;;;;;;;3.10;1.70;;;;;;;-0.20;48.58;97365.28;5045183;28;20049;-59
2022/03/10 10:28:54;;;;;;;4.65;2.08;;;;;;;0.49;49.71;97556.03;5045518;28;20208;-57
2022/03/10 10:31:27;;;;;;;6.82;3.22;;;;;;;-0.43;51.02;97300.88;5044175;28;20056;-61
2022/03/10 10:34:11;;;;;;;6.03;2.83;;;;;;;0.34;53.99;97447.28;5044729;28;20082;-63
2022/03/10 10:36:38;;;;;;;7.43;1.42;;;;;;;0.08;53.64;97465.09;5044960;28;20051;-62
2022/03/10 10:39:10;;;;;;;7.03;2.65;;;;;;;0.31;51.80;97464.22;5043810;28;20450;-62
2022/03/10 10:41:41;;;;;;;6.25;2.67;;;;;;;0.39;50.08;97466.28;5044521;28;20057;-61
2022/03/10 10:44:15;;;;;;;5.88;1.98;;;;;;;0.02;50.33;97384.56;5045055;28;20063;-57
2022/03/10 10:46:44;;;;;;;7.90;2.72;;;;;;;0.68;49.20;97461.47;5044863;28;20448;-63
2022/03/10 10:49:15;;;;;;;2.63;1.02;;;;;;;0.44;49.07;97462.69;5045766;28;20112;-56
2022/03/10 10:51:47;;;;;;;4.55;1.92;;;;;;;0.74;48.18;97463.03;5045199;28;20080;-66
2022/03/10 10:54:34;;;;;;;5.20;2.30;;;;;;;0.82;47.61;97451.41;5042881;28;20049;-57
2022/03/10 10:57:03;;;;;;;5.72;2.50;;;;;;;1.42;47.52;97444.09;5064762;28;20126;-57
2022/03/10 10:59:36;;;;;;;9.05;3.22;;;;;;;1.79;48.03;97443.09;5044393;28;20118;-62
2022/03/10 11:02:16;;;;;;;2.53;1.83;;;;;;;1.55;45.84;97435.91;5043042;28;20591;-60
2022/03/10 11:04:46;;;;;;;4.25;1.77;;;;;;;0.58;46.05;97363.53;5043628;28;20168;-57
2022/03/10 11:07:17;;;;;;;3.88;1.70;;;;;;;1.36;46.23;97432.44;5044233;28;20052;-57
2022/03/10 11:09:46;;;;;;;8.80;3.45;;;;;;;0.82;45.02;97334.19;5044359;28;20047;-59
2022/03/10 11:12:14;;;;;;;5.07;2.40;;;;;;;1.40;45.50;97539.91;5044360;28;20059;-62
2022/03/10 11:14:43;;;;;;;3.05;1.33;;;;;;;1.46;44.77;97426.81;5042908;28;20110;-61
2022/03/10 11:17:14;;;;;;;5.28;2.30;;;;;;;1.47;45.18;97433.88;5043482;28;20053;-71
2022/03/10 11:19:50;;;;;;;9.55;3.25;;;;;;;1.64;44.35;97410.63;5043728;28;20102;-59
2022/03/10 11:22:55;;;;;;;6.00;3.00;;;;;;;-0.58;44.50;97119.66;5044142;28;20053;-59
2022/03/10 11:25:44;;;;;;;4.47;2.30;;;;;;;1.33;45.00;97421.31;5044284;28;20061;-58
2022/03/10 11:28:21;;;;;;;7.15;2.80;;;;;;;1.17;43.94;97347.16;5044011;28;20049;-58
2022/03/10 11:30:50;;;;;;;6.68;3.03;;;;;;;1.77;43.58;97426.19;5044086;28;20427;-63
2022/03/10 11:33:17;;;;;;;6.10;2.70;;;;;;;1.74;44.34;97432.28;5044288;28;20049;-61
2022/03/10 11:35:46;;;;;;;5.10;2.92;;;;;;;0.92;44.26;97344.91;5044077;28;20065;-60
2022/03/10 11:38:15;;;;;;;6.78;3.03;;;;;;;1.40;44.66;97438.13;5043684;28;20547;-56
2022/03/10 11:40:51;;;;;;;10.20;4.38;;;;;;;1.88;45.57;97433.06;5040980;28;20045;-58
2022/03/10 11:43:30;;;;;;;12.77;4.57;;;;;;;1.60;49.54;97385.06;5044102;28;20512;-64